Time;durP1;ratioP1;P1;durP2;ratioP2;P2;SDS_P1;SDS_P2;PMS_P1;PMS_P2;Temp;Humidity;BMP_temperature;BMP_pressure;BME280_temperature;BME280_humidity;BME280_pressure;Samples;Min_cycle;Max_cycle;Signal;HPM_P1;HPM_P2
2022/04/27 00:00:49;;;;;;;5.30;4.80;;;8.90;99.90;;;;;;5036970;28;20194;-71
2022/04/27 00:03:14;;;;;;;7.17;4.80;;;8.90;99.90;;;;;;5036262;28;20244;-69
2022/04/27 00:05:40;;;;;;;5.60;5.10;;;8.90;99.90;;;;;;5036464;28;20189;-71
2022/04/27 00:08:06;;;;;;;6.00;4.67;;;8.90;99.90;;;;;;5036551;28;20692;-71
2022/04/27 00:10:32;;;;;;;6.77;5.83;;;8.90;99.90;;;;;;5036308;28;20189;-72
2022/04/27 00:12:57;;;;;;;6.70;4.30;;;8.90;99.90;;;;;;5036469;28;20401;-70
2022/04/27 00:15:25;;;;;;;7.13;4.90;;;8.90;99.90;;;;;;5036182;28;20255;-72
2022/04/27 00:17:51;;;;;;;6.90;5.05;;;8.90;99.90;;;;;;5036554;28;20170;-73
2022/04/27 00:20:17;;;;;;;5.30;4.80;;;8.80;99.90;;;;;;5036542;28;20240;-72
2022/04/27 00:22:42;;;;;;;6.70;5.80;;;8.80;99.90;;;;;;5036213;28;20163;-74
2022/04/27 00:25:08;;;;;;;5.67;5.07;;;8.90;99.90;;;;;;5037162;28;20201;-74
2022/04/27 00:27:34;;;;;;;6.90;4.60;;;8.90;99.90;;;;;;5037256;28;20198;-72
2022/04/27 00:30:00;;;;;;;7.37;4.77;;;8.90;99.90;;;;;;5037263;28;20400;-72
2022/04/27 00:32:26;;;;;;;5.73;4.20;;;8.80;99.90;;;;;;5036660;28;20599;-73
2022/04/27 00:34:52;;;;;;;7.55;5.22;;;8.80;99.90;;;;;;5036589;28;20192;-74
2022/04/27 00:37:20;;;;;;;5.67;5.13;;;8.80;99.90;;;;;;5036632;28;20173;-74
2022/04/27 00:39:46;;;;;;;6.13;5.20;;;8.80;99.90;;;;;;5036139;28;20540;-72
2022/04/27 00:42:23;;;;;;;5.60;4.67;;;8.80;99.90;;;;;;5036051;28;20202;-72
2022/04/27 00:44:50;;;;;;;6.05;5.45;;;8.80;99.90;;;;;;5035994;28;20521;-72
2022/04/27 00:47:17;;;;;;;5.28;4.47;;;8.90;99.90;;;;;;5035809;28;20180;-71
2022/04/27 00:49:48;;;;;;;4.80;4.40;;;8.90;99.90;;;;;;5035891;28;20174;-70
2022/04/27 00:52:15;;;;;;;6.93;6.28;;;8.90;99.90;;;;;;5036088;28;20202;-71
2022/04/27 00:54:42;;;;;;;10.85;6.75;;;8.90;99.90;;;;;;5035417;28;20174;-71
2022/04/27 00:57:08;;;;;;;6.95;6.25;;;8.90;99.90;;;;;;5036005;28;20265;-73
2022/04/27 00:59:35;;;;;;;9.90;7.10;;;8.90;99.90;;;;;;5035774;28;20190;-71
2022/04/27 01:02:01;;;;;;;7.88;6.53;;;9.00;99.90;;;;;;5034061;28;20174;-72
2022/04/27 01:04:28;;;;;;;8.70;6.30;;;9.00;99.90;;;;;;5034389;28;20178;-72
2022/04/27 01:06:53;;;;;;;9.15;6.13;;;8.90;99.90;;;;;;5035587;28;20416;-72
2022/04/27 01:09:21;;;;;;;8.30;5.63;;;9.00;99.90;;;;;;5035546;28;20173;-72
2022/04/27 01:11:47;;;;;;;12.45;7.90;;;9.00;99.90;;;;;;5035447;28;20218;-74
2022/04/27 01:14:12;;;;;;;7.47;6.77;;;9.00;99.90;;;;;;5034962;28;20233;-72
2022/04/27 01:16:38;;;;;;;9.50;6.87;;;9.00;99.90;;;;;;5035225;28;20189;-72
2022/04/27 01:19:05;;;;;;;8.20;6.23;;;9.00;99.90;;;;;;5035344;28;20166;-74
2022/04/27 01:21:31;;;;;;;7.90;5.97;;;9.00;99.90;;;;;;5035593;28;20202;-72
2022/04/27 01:23:56;;;;;;;6.63;5.97;;;9.00;99.90;;;;;;5034715;28;20226;-71
2022/04/27 01:26:22;;;;;;;8.73;7.40;;;9.00;99.90;;;;;;5035382;28;20529;-73
2022/04/27 01:28:47;;;;;;;10.83;7.87;;;9.00;99.90;;;;;;5035360;28;20193;-72
2022/04/27 01:31:14;;;;;;;14.40;7.57;;;9.00;99.90;;;;;;5035018;28;20196;-71
2022/04/27 01:33:40;;;;;;;7.95;5.93;;;9.00;99.90;;;;;;5034664;28;20170;-73
2022/04/27 01:36:08;;;;;;;9.32;7.57;;;9.10;99.90;;;;;;5034797;28;20269;-69
2022/04/27 01:38:43;;;;;;;6.15;5.07;;;9.10;99.90;;;;;;5034886;28;20185;-72
2022/04/27 01:41:09;;;;;;;8.70;5.80;;;9.10;99.90;;;;;;5033819;28;20556;-71
2022/04/27 01:43:36;;;;;;;8.80;6.22;;;9.10;99.90;;;;;;5034591;28;20526;-71
2022/04/27 01:46:03;;;;;;;8.13;6.28;;;9.10;99.90;;;;;;5034736;28;20304;-72
2022/04/27 01:48:28;;;;;;;12.88;7.07;;;9.20;99.90;;;;;;5034992;28;20224;-72
2022/04/27 01:50:54;;;;;;;7.47;6.63;;;9.10;99.90;;;;;;5034851;28;20170;-71
2022/04/27 01:56:05;;;;;;;11.63;6.93;;;9.10;99.90;;;;;;5034589;28;20236;-73
2022/04/27 01:58:32;;;;;;;11.13;7.03;;;9.20;99.90;;;;;;5033284;28;20231;-72
2022/04/27 02:00:57;;;;;;;10.10;6.60;;;9.20;99.90;;;;;;5034641;28;20232;-72
2022/04/27 02:03:24;;;;;;;9.90;6.67;;;9.20;99.90;;;;;;5034160;28;20213;-72
2022/04/27 02:05:50;;;;;;;10.52;7.95;;;9.20;99.90;;;;;;5034427;28;20424;-72
2022/04/27 02:08:16;;;;;;;10.95;7.95;;;9.20;99.90;;;;;;5034193;28;20173;-73
2022/04/27 02:10:42;;;;;;;9.90;7.93;;;9.30;99.90;;;;;;5034449;28;20178;-73
2022/04/27 02:13:09;;;;;;;11.85;9.40;;;9.20;99.90;;;;;;5034322;28;20170;-72
2022/04/27 02:15:36;;;;;;;10.65;9.10;;;9.30;99.90;;;;;;5034373;28;20247;-73
2022/04/27 02:18:02;;;;;;;8.88;6.82;;;9.20;99.90;;;;;;5034393;28;20253;-72
2022/04/27 02:20:28;;;;;;;11.05;8.57;;;9.30;99.90;;;;;;5034202;28;20208;-72
2022/04/27 02:22:54;;;;;;;15.02;8.45;;;9.30;99.90;;;;;;5033646;28;20170;-73
2022/04/27 02:25:22;;;;;;;9.13;7.43;;;9.30;99.90;;;;;;5033773;28;20676;-72
2022/04/27 02:27:49;;;;;;;10.13;8.05;;;9.30;99.90;;;;;;5034010;28;20962;-71
2022/04/27 02:30:16;;;;;;;12.18;8.07;;;9.30;99.90;;;;;;5033932;28;20620;-73
2022/04/27 02:32:42;;;;;;;11.68;8.70;;;9.30;99.90;;;;;;5034043;28;20178;-72
2022/04/27 02:35:08;;;;;;;9.20;7.15;;;9.20;99.90;;;;;;5033621;28;20221;-72
2022/04/27 02:37:36;;;;;;;12.25;7.88;;;9.20;99.90;;;;;;5033660;28;20690;-72
2022/04/27 02:40:02;;;;;;;9.32;6.72;;;9.20;99.90;;;;;;5033641;28;20193;-73
2022/04/27 02:42:29;;;;;;;12.77;8.48;;;9.30;99.90;;;;;;5033706;28;20682;-73
2022/04/27 02:44:55;;;;;;;11.50;9.27;;;9.20;99.90;;;;;;5033331;28;20570;-71
2022/04/27 02:47:21;;;;;;;12.30;7.78;;;9.20;99.90;;;;;;5033629;28;20533;-73
2022/04/27 02:52:31;;;;;;;16.40;8.18;;;9.20;99.90;;;;;;5033456;28;20185;-73
2022/04/27 02:54:57;;;;;;;12.50;8.67;;;9.20;99.90;;;;;;5033066;28;20173;-72
2022/04/27 02:57:23;;;;;;;12.30;7.50;;;9.10;99.90;;;;;;5033522;28;20223;-72
2022/04/27 02:59:49;;;;;;;11.90;7.70;;;9.10;99.90;;;;;;5033176;28;20860;-72
2022/04/27 03:02:15;;;;;;;7.50;6.17;;;9.10;99.90;;;;;;5033546;28;20297;-73
2022/04/27 03:04:40;;;;;;;12.20;8.90;;;9.10;99.90;;;;;;5032782;28;20190;-71
2022/04/27 03:07:06;;;;;;;8.93;6.50;;;9.10;99.90;;;;;;5033137;28;20536;-72
2022/04/27 03:09:32;;;;;;;9.27;7.68;;;9.10;99.90;;;;;;5033261;28;20182;-72
2022/04/27 03:11:58;;;;;;;17.53;8.73;;;9.10;99.90;;;;;;5033300;28;20178;-72
2022/04/27 03:14:24;;;;;;;10.90;7.28;;;9.10;99.90;;;;;;5033014;28;20424;-71
2022/04/27 03:16:52;;;;;;;7.37;5.30;;;9.20;99.90;;;;;;5033240;28;20198;-72
2022/04/27 03:19:18;;;;;;;10.75;7.53;;;9.10;99.90;;;;;;5033161;28;20409;-71
2022/04/27 03:21:44;;;;;;;11.02;8.50;;;9.10;99.90;;;;;;5032983;28;20204;-72
2022/04/27 03:24:10;;;;;;;12.17;8.07;;;9.20;99.90;;;;;;5032720;28;20201;-72
2022/04/27 03:26:36;;;;;;;12.43;8.63;;;9.20;99.90;;;;;;5036477;28;20859;-72
2022/04/27 03:29:03;;;;;;;9.60;7.30;;;9.20;99.90;;;;;;5039638;28;20194;-71
2022/04/27 03:31:29;;;;;;;13.30;8.15;;;9.20;99.90;;;;;;5039586;28;22059;-72
2022/04/27 03:33:54;;;;;;;14.43;9.17;;;9.30;99.90;;;;;;5039280;28;20215;-72
2022/04/27 03:36:20;;;;;;;12.50;8.73;;;9.30;99.90;;;;;;5039567;28;20443;-72
2022/04/27 03:38:48;;;;;;;9.80;7.20;;;9.20;99.90;;;;;;5039644;28;20181;-72
2022/04/27 03:41:17;;;;;;;11.60;7.65;;;9.20;99.90;;;;;;5039791;28;20213;-72
2022/04/27 03:43:44;;;;;;;11.45;8.45;;;9.20;99.90;;;;;;5039134;28;20173;-72
2022/04/27 03:46:09;;;;;;;11.35;7.78;;;9.20;99.90;;;;;;5039358;28;20185;-72
2022/04/27 03:48:35;;;;;;;12.23;8.10;;;9.20;99.90;;;;;;5039593;28;20169;-72
2022/04/27 03:51:01;;;;;;;12.47;8.97;;;9.20;99.90;;;;;;5039705;28;20174;-72
2022/04/27 03:53:26;;;;;;;11.20;7.97;;;9.20;99.90;;;;;;5039037;28;20169;-71
2022/04/27 03:55:52;;;;;;;10.00;7.20;;;9.10;99.90;;;;;;5038114;28;20611;-72
2022/04/27 03:58:19;;;;;;;12.23;7.83;;;9.20;99.90;;;;;;5020906;28;20181;-72
2022/04/27 04:00:45;;;;;;;10.65;7.85;;;9.20;99.90;;;;;;5024851;28;20448;-72
2022/04/27 04:03:11;;;;;;;11.63;7.43;;;9.20;99.90;;;;;;5038775;28;20244;-72
2022/04/27 04:05:37;;;;;;;11.25;7.82;;;9.20;99.90;;;;;;5036922;28;20732;-72
2022/04/27 04:08:03;;;;;;;10.73;6.57;;;9.20;99.90;;;;;;5019371;28;20175;-71
2022/04/27 04:10:29;;;;;;;10.82;6.93;;;9.20;99.90;;;;;;5019509;28;20182;-72
2022/04/27 04:12:55;;;;;;;11.63;7.40;;;9.30;99.90;;;;;;5023791;28;20669;-70
2022/04/27 04:15:21;;;;;;;8.17;6.17;;;9.30;99.90;;;;;;5039077;28;20186;-72
2022/04/27 04:17:46;;;;;;;10.87;7.97;;;9.30;99.90;;;;;;5039043;28;20185;-72
2022/04/27 04:20:14;;;;;;;13.37;8.17;;;9.30;99.90;;;;;;5038936;28;20207;-70
2022/04/27 04:22:41;;;;;;;12.40;8.20;;;9.30;99.90;;;;;;5039169;28;20188;-70
2022/04/27 04:30:35;;;;;;;13.25;8.45;;;9.30;99.90;;;;;;5034698;28;20204;-71
2022/04/27 04:33:01;;;;;;;18.87;8.20;;;9.30;99.90;;;;;;5039149;28;20162;-71
2022/04/27 04:35:26;;;;;;;11.80;7.40;;;9.30;99.90;;;;;;5036222;28;20188;-71
2022/04/27 04:37:53;;;;;;;12.50;8.10;;;9.30;99.90;;;;;;5041631;28;20185;-72
2022/04/27 04:40:18;;;;;;;20.17;10.20;;;9.30;99.90;;;;;;5037358;28;20194;-73
2022/04/27 04:42:44;;;;;;;15.07;8.77;;;9.30;99.90;;;;;;5035990;28;20221;-70
2022/04/27 04:45:09;;;;;;;12.00;8.27;;;9.30;99.90;;;;;;5034728;28;20202;-73
2022/04/27 04:47:35;;;;;;;14.40;10.60;;;9.30;99.90;;;;;;5035167;28;20179;-71
2022/04/27 04:50:01;;;;;;;14.10;9.77;;;9.30;99.90;;;;;;5035866;28;20200;-70
2022/04/27 04:52:27;;;;;;;14.27;8.80;;;9.40;99.90;;;;;;5020887;28;20232;-70
2022/04/27 04:54:53;;;;;;;13.27;8.35;;;9.40;99.90;;;;;;5034061;28;20224;-70
2022/04/27 04:57:18;;;;;;;9.10;7.53;;;9.40;99.90;;;;;;5033880;28;20182;-73
2022/04/27 04:59:44;;;;;;;11.87;7.70;;;9.40;99.90;;;;;;5034319;28;20205;-71
2022/04/27 05:02:10;;;;;;;17.10;8.80;;;9.40;99.90;;;;;;5035786;28;20261;-72
2022/04/27 05:04:35;;;;;;;15.67;8.07;;;9.40;99.90;;;;;;5035054;28;20544;-71
2022/04/27 05:07:01;;;;;;;9.60;7.23;;;9.40;99.90;;;;;;5035088;28;20223;-71
2022/04/27 05:09:26;;;;;;;10.30;7.30;;;9.40;99.90;;;;;;5035299;28;20166;-71
2022/04/27 05:11:52;;;;;;;16.60;11.40;;;9.50;99.90;;;;;;5035014;28;20181;-71
2022/04/27 05:14:18;;;;;;;13.50;7.87;;;9.50;99.90;;;;;;5035932;28;20178;-70
2022/04/27 05:16:43;;;;;;;12.10;8.03;;;9.50;99.90;;;;;;5039216;28;20683;-69
2022/04/27 05:19:09;;;;;;;11.43;7.60;;;9.50;99.90;;;;;;5038672;28;20206;-70
2022/04/27 05:21:34;;;;;;;8.43;7.53;;;9.60;99.90;;;;;;5038736;28;20303;-70
2022/04/27 05:24:00;;;;;;;11.70;9.70;;;9.70;99.90;;;;;;5035299;28;20185;-71
2022/04/27 05:26:26;;;;;;;11.57;8.30;;;9.70;99.90;;;;;;5035057;28;20182;-70
2022/04/27 05:31:54;;;;;;;12.40;8.43;;;9.80;99.90;;;;;;5034937;28;20581;-71
2022/04/27 05:34:23;;;;;;;14.48;8.15;;;9.80;99.90;;;;;;5032596;28;20533;-70
2022/04/27 05:36:48;;;;;;;12.43;9.15;;;9.80;99.90;;;;;;5031250;28;20194;-71
2022/04/27 05:39:14;;;;;;;15.40;10.27;;;9.80;99.90;;;;;;5015221;28;20537;-71
2022/04/27 05:41:41;;;;;;;15.27;8.63;;;9.80;99.90;;;;;;5024555;28;20201;-70
2022/04/27 05:44:09;;;;;;;16.33;10.80;;;9.80;99.90;;;;;;5034408;28;20567;-70
2022/04/27 05:46:41;;;;;;;14.85;8.85;;;9.80;99.90;;;;;;5034641;28;20277;-72
2022/04/27 05:49:07;;;;;;;8.32;6.40;;;9.80;99.90;;;;;;5034334;28;20167;-71
2022/04/27 05:51:33;;;;;;;14.40;9.37;;;9.90;99.90;;;;;;5034083;28;20537;-71
2022/04/27 05:53:58;;;;;;;14.97;11.00;;;9.90;99.90;;;;;;5033706;28;20649;-69
2022/04/27 05:56:24;;;;;;;19.10;8.17;;;10.00;99.90;;;;;;5033125;28;20256;-76
2022/04/27 05:58:51;;;;;;;13.48;8.45;;;10.00;99.90;;;;;;5034851;28;20553;-72
2022/04/27 06:01:18;;;;;;;14.90;8.02;;;10.00;99.90;;;;;;5033840;28;20206;-75
2022/04/27 06:03:44;;;;;;;17.48;9.25;;;10.10;99.90;;;;;;5034165;28;20182;-71
2022/04/27 06:06:09;;;;;;;15.67;8.87;;;10.30;99.90;;;;;;5034264;28;20255;-76
2022/04/27 06:08:35;;;;;;;15.13;9.90;;;10.40;99.90;;;;;;5034543;28;20162;-71
2022/04/27 06:11:01;;;;;;;15.77;9.73;;;10.50;99.90;;;;;;5034238;28;20362;-70
2022/04/27 06:13:26;;;;;;;13.40;10.00;;;10.60;99.90;;;;;;5033255;28;20177;-72
2022/04/27 06:15:52;;;;;;;20.50;11.03;;;10.70;99.90;;;;;;5033456;28;20274;-70
2022/04/27 06:18:18;;;;;;;14.83;10.00;;;10.80;99.90;;;;;;5034371;28;20610;-71
2022/04/27 06:20:43;;;;;;;13.47;9.10;;;10.90;99.90;;;;;;5032388;28;20796;-70
2022/04/27 06:23:09;;;;;;;12.40;9.03;;;11.00;99.90;;;;;;5033755;28;20193;-73
2022/04/27 06:25:39;;;;;;;14.30;10.43;;;11.10;99.90;;;;;;5033435;28;20190;-73
2022/04/27 06:28:05;;;;;;;11.85;8.52;;;11.20;99.90;;;;;;5032296;28;20230;-71
2022/04/27 06:30:32;;;;;;;17.07;9.83;;;11.30;99.90;;;;;;5030870;28;20207;-71
2022/04/27 06:32:58;;;;;;;14.63;9.93;;;11.40;99.90;;;;;;5034113;28;20408;-71
2022/04/27 06:35:23;;;;;;;14.03;9.13;;;11.50;99.90;;;;;;5032859;28;20225;-71
2022/04/27 06:37:49;;;;;;;12.30;9.20;;;11.40;99.90;;;;;;5033417;28;20669;-71
2022/04/27 06:40:15;;;;;;;9.90;6.83;;;11.30;99.90;;;;;;5033387;28;20203;-73
2022/04/27 06:42:44;;;;;;;12.83;9.23;;;11.40;99.90;;;;;;5030135;28;20534;-70
2022/04/27 06:45:10;;;;;;;10.90;7.23;;;11.40;99.90;;;;;;5025885;28;20481;-70
2022/04/27 06:47:36;;;;;;;11.48;7.45;;;11.40;99.90;;;;;;5041936;28;20813;-69
2022/04/27 06:50:01;;;;;;;11.27;7.43;;;11.50;99.90;;;;;;5033617;28;20211;-69
2022/04/27 06:52:27;;;;;;;13.50;7.67;;;11.40;99.90;;;;;;5051735;28;20198;-69
2022/04/27 06:54:53;;;;;;;11.80;7.40;;;11.40;99.90;;;;;;5053169;28;20171;-71
2022/04/27 06:57:18;;;;;;;12.37;7.93;;;11.20;99.90;;;;;;5053633;28;20257;-69
2022/04/27 06:59:44;;;;;;;11.80;8.13;;;11.10;99.90;;;;;;5053294;28;20189;-69
2022/04/27 07:02:11;;;;;;;10.20;7.67;;;11.00;99.90;;;;;;5052879;28;20170;-70
2022/04/27 07:04:37;;;;;;;9.65;7.30;;;11.00;99.90;;;;;;5046096;28;20338;-75
2022/04/27 07:07:04;;;;;;;9.52;7.85;;;11.10;99.90;;;;;;5033691;28;20170;-69
2022/04/27 07:09:30;;;;;;;7.88;5.93;;;11.10;99.90;;;;;;5033143;28;20169;-71
2022/04/27 07:11:56;;;;;;;9.65;6.00;;;11.00;99.90;;;;;;5031802;28;20178;-70
2022/04/27 10:40:40;;;;;;;4.30;3.17;;;15.70;97.30;;;;;;5013024;28;20503;-66
2022/04/27 10:43:11;;;;;;;2.47;2.27;;;15.60;97.40;;;;;;5013940;28;20421;-71
2022/04/27 10:45:45;;;;;;;2.57;2.13;;;15.50;97.20;;;;;;5014101;28;20376;-69
2022/04/27 10:48:22;;;;;;;2.90;2.70;;;15.40;97.90;;;;;;5013909;28;20428;-66
2022/04/27 10:51:08;;;;;;;3.23;2.57;;;15.50;98.50;;;;;;5014135;28;20462;-68
2022/04/27 10:53:48;;;;;;;2.77;2.00;;;15.70;98.10;;;;;;5013814;28;20433;-69
2022/04/27 10:56:22;;;;;;;2.70;2.50;;;15.80;98.30;;;;;;5014045;28;20418;-70
2022/04/27 10:58:48;;;;;;;2.43;2.33;;;16.20;97.10;;;;;;5014043;28;20529;-71
2022/04/27 11:01:19;;;;;;;2.73;2.10;;;16.40;97.90;;;;;;5012861;28;20973;-70
2022/04/27 11:03:55;;;;;;;1.97;1.83;;;16.60;97.80;;;;;;5013490;28;20412;-71
2022/04/27 11:06:22;;;;;;;3.67;2.33;;;16.60;97.20;;;;;;5013970;28;20479;-71
2022/04/27 11:09:24;;;;;;;1.97;1.87;;;16.50;96.90;;;;;;5012338;28;20935;-70
2022/04/27 11:11:52;;;;;;;2.00;1.83;;;16.50;97.20;;;;;;5013862;28;20551;-72
2022/04/27 11:14:20;;;;;;;2.50;2.30;;;16.90;97.00;;;;;;5013295;28;20414;-72
2022/04/27 11:16:50;;;;;;;3.70;2.40;;;17.10;96.30;;;;;;5013663;28;20449;-72
2022/04/27 11:19:16;;;;;;;3.50;2.67;;;17.10;96.10;;;;;;5012292;28;20866;-74
2022/04/27 11:21:42;;;;;;;4.70;3.00;;;16.90;96.10;;;;;;5013466;28;20470;-75
2022/04/27 11:24:11;;;;;;;2.27;2.07;;;17.00;95.60;;;;;;5013258;28;20406;-73
2022/04/27 11:26:47;;;;;;;2.43;2.33;;;17.00;95.60;;;;;;5012477;28;20224;-74
2022/04/27 11:29:14;;;;;;;2.43;2.23;;;17.00;95.70;;;;;;5013287;28;20578;-73
2022/04/27 11:31:42;;;;;;;3.07;2.87;;;17.00;95.90;;;;;;5013239;28;20922;-73
2022/04/27 11:34:40;;;;;;;2.50;2.30;;;17.00;95.70;;;;;;5011487;28;20384;-72
2022/04/27 11:37:16;;;;;;;3.13;2.83;;;17.10;95.70;;;;;;5001387;28;20433;-74
2022/04/27 11:39:43;;;;;;;2.70;2.50;;;17.40;95.70;;;;;;5013121;28;20498;-75
2022/04/27 11:42:12;;;;;;;4.20;3.30;;;17.60;95.40;;;;;;5013073;28;20497;-70
2022/04/27 11:44:40;;;;;;;3.00;2.80;;;17.60;95.00;;;;;;5011844;28;20400;-70
2022/04/27 11:47:27;;;;;;;3.10;2.90;;;17.50;94.00;;;;;;5013823;28;20457;-67
2022/04/27 11:49:58;;;;;;;3.70;2.17;;;17.20;94.40;;;;;;5013440;28;20881;-67
2022/04/27 11:52:23;;;;;;;5.60;3.47;;;17.20;94.50;;;;;;5017139;28;20385;-67
2022/04/27 11:54:49;;;;;;;2.93;2.73;;;17.20;93.80;;;;;;5015512;28;20942;-67
2022/04/27 11:57:22;;;;;;;3.13;2.80;;;17.20;94.60;;;;;;5017114;28;20567;-67
2022/04/27 11:59:51;;;;;;;2.30;2.10;;;17.20;94.50;;;;;;5017241;28;20494;-66
2022/04/27 12:02:22;;;;;;;3.73;2.87;;;17.20;94.30;;;;;;5017306;28;20432;-67
2022/04/27 12:04:49;;;;;;;3.37;3.07;;;17.20;94.90;;;;;;5450425;22;20482;-69
2022/04/27 12:07:16;;;;;;;3.00;2.70;;;17.40;94.20;;;;;;5036306;28;20905;-64
2022/04/27 12:09:54;;;;;;;3.03;2.73;;;17.30;94.30;;;;;;5036538;28;20511;-65
2022/04/27 12:12:20;;;;;;;2.17;2.03;;;17.40;94.30;;;;;;5036545;28;20366;-66
2022/04/27 12:14:46;;;;;;;2.97;2.80;;;17.30;92.50;;;;;;5036273;28;20451;-67
2022/04/27 12:17:50;;;;;;;2.20;2.10;;;17.30;92.50;;;;;;5036770;28;20238;-65
2022/04/27 12:20:23;;;;;;;2.43;2.33;;;17.00;92.80;;;;;;5036295;28;20252;-66
2022/04/27 12:23:05;;;;;;;3.27;2.77;;;16.70;92.40;;;;;;5036445;28;20416;-68
2022/04/27 12:25:53;;;;;;;2.40;2.20;;;16.50;93.20;;;;;;5036442;28;20809;-69
2022/04/27 12:28:32;;;;;;;2.83;2.67;;;16.20;93.40;;;;;;5036295;28;20912;-69
2022/04/27 12:31:02;;;;;;;2.50;2.30;;;15.90;94.10;;;;;;5036192;28;20910;-69
2022/04/27 12:33:31;;;;;;;2.30;2.20;;;15.80;94.60;;;;;;5035836;28;20411;-68
2022/04/27 12:39:04;;;;;;;4.60;3.00;;;15.60;95.00;;;;;;5036521;28;20408;-69
2022/04/27 12:41:34;;;;;;;2.30;2.20;;;15.40;95.80;;;;;;5034986;28;20491;-69
2022/04/27 12:44:05;;;;;;;4.57;3.07;;;15.30;96.10;;;;;;5033533;28;20432;-69
2022/04/27 12:46:31;;;;;;;3.57;3.30;;;15.20;96.30;;;;;;5032543;28;20435;-69
2022/04/27 12:49:05;;;;;;;3.17;2.60;;;15.00;96.70;;;;;;5033783;28;20484;-67
2022/04/27 12:51:34;;;;;;;2.67;2.47;;;15.00;96.90;;;;;;5033583;28;20419;-69
2022/04/27 12:54:01;;;;;;;3.07;2.80;;;15.00;96.80;;;;;;5033672;28;20452;-69
2022/04/27 12:56:36;;;;;;;2.50;2.37;;;14.90;96.70;;;;;;5034354;28;20499;-68
2022/04/27 12:59:12;;;;;;;2.57;2.10;;;15.00;96.60;;;;;;5034564;28;20391;-68
2022/04/27 13:01:39;;;;;;;2.63;2.43;;;15.00;97.20;;;;;;5034634;28;20460;-67
2022/04/27 13:04:06;;;;;;;3.97;3.17;;;15.00;97.00;;;;;;5035111;28;20473;-68
2022/04/27 13:06:32;;;;;;;3.97;3.13;;;15.10;97.10;;;;;;5035757;28;20507;-68
2022/04/27 13:11:55;;;;;;;3.00;2.77;;;15.30;97.10;;;;;;5035595;28;20817;-68
2022/04/27 13:14:22;;;;;;;2.83;2.63;;;15.50;97.20;;;;;;5034967;28;20437;-68
2022/04/27 13:16:48;;;;;;;3.90;3.37;;;15.60;97.50;;;;;;5035429;28;20413;-69
2022/04/27 13:19:13;;;;;;;2.83;2.63;;;15.70;97.70;;;;;;5035307;28;20405;-68
2022/04/27 13:21:39;;;;;;;3.20;2.87;;;15.80;97.30;;;;;;5035302;28;20233;-68
2022/04/27 13:24:05;;;;;;;3.10;2.80;;;15.90;97.40;;;;;;5034935;28;20281;-69
2022/04/27 13:26:31;;;;;;;3.17;2.87;;;15.90;96.90;;;;;;5035244;28;20167;-69
2022/04/27 13:28:56;;;;;;;2.50;2.30;;;15.90;96.70;;;;;;5035179;28;20495;-67
2022/04/27 13:31:22;;;;;;;4.67;4.27;;;16.00;96.60;;;;;;5034941;28;20591;-69
2022/04/27 13:33:47;;;;;;;3.37;2.87;;;16.10;96.60;;;;;;5034663;28;20186;-69
2022/04/27 13:36:13;;;;;;;2.80;2.60;;;16.20;96.10;;;;;;5034753;28;20174;-68
2022/04/27 13:38:39;;;;;;;2.90;2.70;;;16.20;96.30;;;;;;5034829;28;20186;-67
2022/04/27 13:41:04;;;;;;;4.40;3.17;;;16.40;96.60;;;;;;5034379;28;20198;-68
2022/04/27 13:43:30;;;;;;;3.23;3.03;;;16.60;96.40;;;;;;5034343;28;20171;-68
2022/04/27 13:46:19;;;;;;;3.97;3.07;;;16.60;95.70;;;;;;5034525;28;20184;-67
2022/04/27 13:48:45;;;;;;;2.33;2.23;;;16.70;94.90;;;;;;5034319;28;20969;-68
2022/04/27 13:51:17;;;;;;;3.10;2.83;;;16.70;95.10;;;;;;5034538;28;20409;-68
2022/04/27 13:53:43;;;;;;;2.50;2.30;;;16.70;94.90;;;;;;5034198;28;20179;-67
2022/04/27 13:56:08;;;;;;;2.90;2.57;;;16.80;95.20;;;;;;5034681;28;20751;-67
2022/04/27 13:58:35;;;;;;;2.40;2.20;;;17.00;95.60;;;;;;5034313;28;20527;-68
2022/04/27 14:01:01;;;;;;;3.07;2.77;;;17.10;95.30;;;;;;5034359;28;20203;-68
2022/04/27 14:03:35;;;;;;;5.53;2.93;;;17.20;94.50;;;;;;5034245;28;20757;-68
2022/04/27 14:06:07;;;;;;;2.40;2.20;;;17.30;94.00;;;;;;5034335;28;20772;-68
2022/04/27 14:08:35;;;;;;;2.77;2.60;;;17.40;94.90;;;;;;5034533;28;20417;-68
2022/04/27 14:11:02;;;;;;;3.00;2.80;;;17.40;94.50;;;;;;5034094;28;20412;-68
2022/04/27 14:13:35;;;;;;;3.70;2.93;;;17.50;94.60;;;;;;5033625;28;20433;-69
2022/04/27 14:19:07;;;;;;;3.60;3.30;;;17.80;94.30;;;;;;5034940;28;20404;-69
2022/04/27 14:21:37;;;;;;;3.17;2.97;;;17.90;93.10;;;;;;5033084;28;20792;-68
2022/04/27 14:24:02;;;;;;;2.67;2.47;;;17.90;92.50;;;;;;5033667;28;20400;-68
2022/04/27 14:26:28;;;;;;;3.40;3.13;;;17.80;92.70;;;;;;5033671;28;20401;-69
2022/04/27 14:28:54;;;;;;;3.10;2.90;;;17.50;93.90;;;;;;5033955;28;20182;-68
2022/04/27 14:31:19;;;;;;;3.30;3.00;;;17.40;94.70;;;;;;5033761;28;20271;-69
2022/04/27 14:33:45;;;;;;;3.00;2.80;;;17.30;93.30;;;;;;5033449;28;20182;-68
2022/04/27 14:36:14;;;;;;;4.83;2.80;;;17.30;92.80;;;;;;5033746;28;20215;-68
2022/04/27 14:38:42;;;;;;;2.63;2.43;;;17.30;93.00;;;;;;5033929;28;20175;-68
2022/04/27 14:41:16;;;;;;;3.97;3.57;;;17.30;92.80;;;;;;5033322;28;20461;-69
2022/04/27 14:43:55;;;;;;;3.07;2.77;;;17.30;92.90;;;;;;5033523;28;20498;-67
2022/04/27 14:46:24;;;;;;;3.47;3.27;;;17.40;92.70;;;;;;5032430;28;20777;-68
2022/04/27 14:48:53;;;;;;;2.80;2.60;;;17.40;92.80;;;;;;5033586;28;20403;-69
2022/04/27 14:51:19;;;;;;;3.17;2.87;;;17.50;92.70;;;;;;5033502;28;20387;-69
2022/04/27 14:53:44;;;;;;;3.07;2.60;;;17.50;93.10;;;;;;5031991;28;20823;-69
2022/04/27 14:56:13;;;;;;;3.13;2.93;;;17.50;93.10;;;;;;5033520;28;20566;-68
2022/04/27 14:58:42;;;;;;;2.53;2.33;;;17.70;91.90;;;;;;5033439;28;20175;-67
2022/04/27 15:01:08;;;;;;;2.43;1.87;;;17.70;92.10;;;;;;5030565;28;20465;-66
2022/04/27 15:03:37;;;;;;;3.57;3.27;;;17.70;92.30;;;;;;5033024;28;20813;-67
2022/04/27 15:06:03;;;;;;;2.90;2.70;;;17.60;91.90;;;;;;5032760;28;20640;-68
2022/04/27 15:08:29;;;;;;;2.93;2.73;;;17.50;91.60;;;;;;5033271;28;20430;-68
2022/04/27 15:10:55;;;;;;;3.00;2.80;;;17.40;91.20;;;;;;5033409;28;20184;-68
2022/04/27 15:13:20;;;;;;;3.33;3.13;;;17.30;91.90;;;;;;5033020;28;20267;-68
2022/04/27 15:15:49;;;;;;;3.20;2.97;;;17.20;91.70;;;;;;5033000;28;20657;-68
2022/04/27 15:18:16;;;;;;;2.43;2.23;;;17.10;91.60;;;;;;5033244;28;20184;-69
2022/04/27 15:23:26;;;;;;;3.43;3.10;;;17.00;91.70;;;;;;5032863;28;20406;-67
2022/04/27 15:25:52;;;;;;;2.40;2.30;;;16.90;92.30;;;;;;5033120;28;20413;-68
2022/04/27 15:28:18;;;;;;;2.97;2.60;;;16.80;92.30;;;;;;5033098;28;20224;-68
2022/04/27 15:30:43;;;;;;;3.00;2.80;;;16.80;92.80;;;;;;5033370;28;20266;-69
2022/04/27 15:33:09;;;;;;;3.37;3.07;;;16.60;92.90;;;;;;5032981;28;20231;-68
2022/04/27 15:35:36;;;;;;;3.53;3.23;;;16.60;93.00;;;;;;5033119;28;20429;-68
2022/04/27 15:38:03;;;;;;;3.10;2.90;;;16.60;92.90;;;;;;5033116;28;20391;-68
2022/04/27 15:40:30;;;;;;;4.70;3.40;;;16.50;92.20;;;;;;5032903;28;20559;-67
2022/04/27 15:43:04;;;;;;;3.90;3.20;;;16.50;92.50;;;;;;5033091;28;20428;-67
2022/04/27 15:45:29;;;;;;;2.73;2.53;;;16.40;92.40;;;;;;5032873;28;20845;-66
2022/04/27 15:47:56;;;;;;;3.27;3.03;;;16.30;92.40;;;;;;5031631;28;20473;-66
2022/04/27 15:50:22;;;;;;;3.70;3.40;;;16.30;92.10;;;;;;5032745;28;20251;-68
2022/04/27 15:52:49;;;;;;;4.77;3.87;;;16.30;92.00;;;;;;5032273;28;20405;-66
2022/04/27 15:55:15;;;;;;;3.53;3.23;;;16.20;92.30;;;;;;5032125;28;20789;-68
2022/04/27 15:57:41;;;;;;;3.53;3.00;;;16.10;92.60;;;;;;5032480;28;20388;-66
2022/04/27 16:00:10;;;;;;;3.23;3.00;;;16.10;92.00;;;;;;5033273;28;20194;-67
2022/04/27 16:02:37;;;;;;;2.73;2.63;;;16.10;92.30;;;;;;5032888;28;20495;-69
2022/04/27 16:05:04;;;;;;;3.70;3.40;;;16.10;93.10;;;;;;5032297;28;20968;-68
2022/04/27 16:07:32;;;;;;;3.67;3.33;;;16.20;93.20;;;;;;5032891;28;20432;-68
2022/04/27 16:09:59;;;;;;;3.97;3.63;;;16.30;92.90;;;;;;5032760;28;20401;-68
2022/04/27 16:12:26;;;;;;;3.43;3.13;;;16.30;93.10;;;;;;5032619;28;20942;-68
2022/04/27 16:14:51;;;;;;;2.90;2.70;;;16.30;92.30;;;;;;5032506;28;20429;-68
2022/04/27 16:17:18;;;;;;;4.57;3.50;;;16.30;92.50;;;;;;5032548;28;20482;-66
2022/04/27 16:19:43;;;;;;;2.87;2.67;;;16.40;92.50;;;;;;5031339;28;20491;-65
2022/04/27 16:24:53;;;;;;;2.70;2.50;;;16.50;92.00;;;;;;5032269;28;20440;-64
2022/04/27 16:27:19;;;;;;;2.73;2.43;;;16.60;90.60;;;;;;5032403;28;20910;-65
2022/04/27 16:29:45;;;;;;;2.70;2.50;;;16.60;90.90;;;;;;5032359;28;20168;-65
2022/04/27 16:32:10;;;;;;;2.70;2.50;;;16.60;90.10;;;;;;5032272;28;20166;-65
2022/04/27 16:34:36;;;;;;;3.03;2.53;;;16.60;89.50;;;;;;5033130;28;20712;-64
2022/04/27 16:37:02;;;;;;;3.63;3.40;;;16.50;89.90;;;;;;5035911;28;20178;-65
2022/04/27 16:39:31;;;;;;;2.90;2.63;;;16.40;90.70;;;;;;5036166;28;20170;-66
2022/04/27 16:41:57;;;;;;;3.47;3.17;;;16.30;90.90;;;;;;5036041;28;20969;-65
2022/04/27 16:44:22;;;;;;;2.93;2.63;;;16.30;91.30;;;;;;5035432;28;20425;-64